createdAt,value
2023-04-10T00:02:01.349Z,6.10
2023-04-10T00:05:04.070Z,3.63
2023-04-10T00:08:06.352Z,3.85
2023-04-10T00:11:08.406Z,3.17
2023-04-10T00:14:10.681Z,3.33
2023-04-10T00:17:12.807Z,4.37
2023-04-10T00:20:15.034Z,3.55
2023-04-10T00:23:17.033Z,4.75
2023-04-10T00:26:20.920Z,5.53
2023-04-10T00:29:24.205Z,4.97
2023-04-10T00:32:26.330Z,6.20
2023-04-10T00:35:28.419Z,5.72
2023-04-10T00:38:30.672Z,4.07
2023-04-10T00:41:32.684Z,3.78
2023-04-10T00:44:37.336Z,3.25
2023-04-10T00:47:39.371Z,4.53
2023-04-10T00:50:41.635Z,3.30
2023-04-10T00:53:43.616Z,3.78
2023-04-10T00:56:47.090Z,7.57
2023-04-10T00:59:52.090Z,5.82
2023-04-10T01:02:55.459Z,5.32
2023-04-10T01:06:12.200Z,4.25
2023-04-10T01:09:14.065Z,5.90
2023-04-10T01:12:24.862Z,3.53
2023-04-10T01:15:30.873Z,4.85
2023-04-10T01:18:38.654Z,3.07
2023-04-10T01:21:42.020Z,4.90
2023-04-10T01:25:05.045Z,5.57
2023-04-10T01:28:18.785Z,4.17
2023-04-10T01:31:25.506Z,3.13
2023-04-10T01:34:34.254Z,4.15
2023-04-10T01:37:39.580Z,3.83
2023-04-10T01:40:48.821Z,5.32
2023-04-10T01:43:53.155Z,3.85
2023-04-10T01:46:57.741Z,5.47
2023-04-10T01:50:02.142Z,4.40
2023-04-10T01:53:07.034Z,2.72
2023-04-10T01:56:09.699Z,3.45
2023-04-10T01:59:17.947Z,4.20
2023-04-10T02:02:20.097Z,2.22
2023-04-10T02:05:26.140Z,3.58
2023-04-10T02:08:42.467Z,3.78
2023-04-10T02:11:49.462Z,2.88
2023-04-10T02:14:56.236Z,4.82
2023-04-10T02:18:00.353Z,4.50
2023-04-10T02:21:03.831Z,3.80
2023-04-10T02:24:07.076Z,3.92
2023-04-10T02:27:09.590Z,3.33
2023-04-10T02:30:11.891Z,3.37
2023-04-10T02:33:14.220Z,4.30
2023-04-10T02:36:16.239Z,3.70
2023-04-10T02:39:18.338Z,2.50
2023-04-10T02:42:27.222Z,4.85
2023-04-10T02:45:33.487Z,4.45
2023-04-10T02:48:35.676Z,3.80
2023-04-10T02:51:38.343Z,2.97
2023-04-10T02:54:40.889Z,2.53
2023-04-10T02:57:42.936Z,3.33
2023-04-10T03:00:49.518Z,3.10
2023-04-10T03:03:58.712Z,2.38
2023-04-10T03:07:06.742Z,3.80
2023-04-10T03:10:11.107Z,3.35
2023-04-10T03:13:14.792Z,2.60
2023-04-10T03:16:18.766Z,2.42
2023-04-10T03:19:21.442Z,3.60
2023-04-10T03:22:23.708Z,2.20
2023-04-10T03:25:26.403Z,2.33
2023-04-10T03:28:29.708Z,1.50
2023-04-10T03:31:38.168Z,1.43
2023-04-10T03:34:40.245Z,3.05
2023-04-10T03:37:42.510Z,2.63
2023-04-10T03:40:44.713Z,3.03
2023-04-10T03:43:46.813Z,1.67
2023-04-10T03:46:48.925Z,2.90
2023-04-10T03:49:51.269Z,2.53
2023-04-10T03:52:53.382Z,3.10
2023-04-10T03:55:57.754Z,3.15
2023-04-10T03:59:00.673Z,2.10
2023-04-10T04:02:02.686Z,3.03
2023-04-10T04:05:06.637Z,2.90
2023-04-10T04:08:20.851Z,3.75
2023-04-10T04:11:40.999Z,3.08
2023-04-10T04:14:52.727Z,2.83
2023-04-10T04:18:22.518Z,2.92
2023-04-10T04:21:29.999Z,2.25
2023-04-10T04:24:42.985Z,3.67
2023-04-10T04:28:06.101Z,2.33
2023-04-10T04:31:32.718Z,3.42
2023-04-10T04:35:04.511Z,1.93
2023-04-10T04:38:35.808Z,1.88
2023-04-10T04:41:43.499Z,2.88
2023-04-10T04:44:51.403Z,3.33
2023-04-10T04:48:17.930Z,3.22
2023-04-10T04:51:40.785Z,1.73
2023-04-10T04:54:47.652Z,3.03
2023-04-10T04:57:58.756Z,3.40
2023-04-10T05:01:18.528Z,3.05
2023-04-10T05:04:45.051Z,2.40
2023-04-10T05:08:07.391Z,2.43
2023-04-10T05:11:42.149Z,2.17
2023-04-10T05:15:04.009Z,3.10
2023-04-10T05:18:31.993Z,3.28
2023-04-10T05:22:06.381Z,2.88
2023-04-10T05:25:31.222Z,3.50
2023-04-10T05:28:38.428Z,3.45
2023-04-10T05:32:09.826Z,2.87
2023-04-10T05:35:19.537Z,3.65
2023-04-10T05:38:39.951Z,3.60
2023-04-10T05:42:09.537Z,4.23
2023-04-10T05:45:24.582Z,3.38
2023-04-10T05:48:39.058Z,2.22
2023-04-10T05:52:16.506Z,2.15
2023-04-10T05:55:21.078Z,3.65
2023-04-10T05:58:55.832Z,2.35
2023-04-10T06:02:24.707Z,2.97
2023-04-10T06:05:27.873Z,3.00
2023-04-10T06:08:35.316Z,3.50
2023-04-10T06:11:37.428Z,3.55
2023-04-10T06:14:39.875Z,4.23
2023-04-10T06:17:45.360Z,3.58
2023-04-10T06:20:47.482Z,4.25
2023-04-10T06:23:49.411Z,4.28
2023-04-10T06:26:53.762Z,5.00
2023-04-10T06:29:56.739Z,5.10
2023-04-10T06:32:58.908Z,5.32
2023-04-10T06:36:04.028Z,3.47
2023-04-10T06:39:09.828Z,3.92
2023-04-10T06:42:11.863Z,3.72
2023-04-10T06:45:31.168Z,3.50
2023-04-10T06:48:33.832Z,4.50
2023-04-10T06:51:36.484Z,3.13
2023-04-10T06:54:38.479Z,4.47
2023-04-10T06:57:40.974Z,3.78
2023-04-10T07:00:43.131Z,3.37
2023-04-10T07:03:45.233Z,3.78
2023-04-10T07:06:47.308Z,4.22
2023-04-10T07:09:49.370Z,2.55
2023-04-10T07:12:51.397Z,4.32
2023-04-10T07:15:53.368Z,3.27
2023-04-10T07:18:56.264Z,3.60
2023-04-10T07:21:58.732Z,2.95
2023-04-10T07:25:01.061Z,4.20
2023-04-10T07:28:03.150Z,3.92
2023-04-10T07:31:06.404Z,4.10
2023-04-10T07:34:08.658Z,2.88
2023-04-10T07:37:10.764Z,4.18
2023-04-10T07:40:13.064Z,2.75
2023-04-10T07:43:15.513Z,3.90
2023-04-10T07:46:18.272Z,3.92
2023-04-10T07:49:20.543Z,3.30
2023-04-10T07:52:23.083Z,2.58
2023-04-10T07:55:25.290Z,3.20
2023-04-10T07:58:27.320Z,3.73
2023-04-10T08:01:29.879Z,3.53
2023-04-10T08:04:32.304Z,3.42
2023-04-10T08:07:36.426Z,3.47
2023-04-10T08:10:39.345Z,3.10
2023-04-10T08:13:41.346Z,2.67
2023-04-10T08:16:43.353Z,3.05
2023-04-10T08:19:45.654Z,2.47
2023-04-10T08:22:47.605Z,2.53
2023-04-10T08:25:49.905Z,2.78
2023-04-10T08:28:54.046Z,2.50
2023-04-10T08:31:57.368Z,2.58
2023-04-10T08:34:59.363Z,2.13
2023-04-10T08:38:13.414Z,2.42
2023-04-10T08:41:18.877Z,2.35
2023-04-10T08:44:20.915Z,2.77
2023-04-10T08:47:27.908Z,3.05
2023-04-10T08:50:33.601Z,4.72
2023-04-10T08:53:41.333Z,2.72
2023-04-10T08:56:49.997Z,2.38
2023-04-10T08:59:52.016Z,2.13
2023-04-10T09:02:58.242Z,2.03
2023-04-10T09:06:04.576Z,1.80
2023-04-10T09:09:07.188Z,1.60
2023-04-10T09:12:09.266Z,2.42
2023-04-10T09:15:11.638Z,2.27
2023-04-10T09:18:13.604Z,2.38
2023-04-10T09:21:18.177Z,2.47
2023-04-10T09:24:20.528Z,2.53
2023-04-10T09:27:42.151Z,2.90
2023-04-10T09:30:44.298Z,2.93
2023-04-10T09:33:46.499Z,2.60
2023-04-10T09:37:00.046Z,2.58
2023-04-10T09:40:02.819Z,3.05
2023-04-10T09:43:17.733Z,3.17
2023-04-10T09:46:26.972Z,2.77
2023-04-10T09:49:28.956Z,3.25
2023-04-10T09:52:33.345Z,3.20
2023-04-10T09:55:36.409Z,3.60
2023-04-10T09:58:38.984Z,2.90
2023-04-10T10:01:42.367Z,3.80
2023-04-10T10:04:46.939Z,3.08
2023-04-10T10:07:49.748Z,3.05
2023-04-10T10:10:54.736Z,3.28
2023-04-10T10:13:58.404Z,2.92
2023-04-10T10:17:05.590Z,3.10
2023-04-10T10:20:10.051Z,3.53
2023-04-10T10:23:13.673Z,3.53
2023-04-10T10:26:16.127Z,3.70
2023-04-10T10:29:19.506Z,3.45
2023-04-10T10:32:22.915Z,2.87
2023-04-10T10:35:29.342Z,3.25
2023-04-10T10:38:32.856Z,3.10
2023-04-10T10:41:49.293Z,3.30
2023-04-10T10:44:58.265Z,3.35
2023-04-10T10:48:01.433Z,3.13
2023-04-10T10:51:04.808Z,3.10
2023-04-10T10:54:34.303Z,3.45
2023-04-10T10:57:46.734Z,3.17
2023-04-10T11:00:52.538Z,2.50
2023-04-10T11:03:55.147Z,2.93
2023-04-10T11:06:57.219Z,2.72
2023-04-10T11:09:59.263Z,3.53
2023-04-10T11:13:17.844Z,2.50
2023-04-10T11:16:21.323Z,2.95
2023-04-10T11:19:26.156Z,3.30
2023-04-10T11:22:29.006Z,2.45
2023-04-10T11:25:46.687Z,2.28
2023-04-10T11:28:48.840Z,3.30
2023-04-10T11:31:59.033Z,2.50
2023-04-10T11:35:03.057Z,2.57
2023-04-10T11:38:10.688Z,2.65
2023-04-10T11:41:12.657Z,2.47
2023-04-10T11:44:31.723Z,3.70
2023-04-10T11:47:33.742Z,2.28
2023-04-10T11:50:36.265Z,3.03
2023-04-10T11:53:39.780Z,2.60
2023-04-10T11:56:54.700Z,1.58
2023-04-10T11:59:57.353Z,2.42
2023-04-10T12:02:59.561Z,2.63
2023-04-10T12:06:02.329Z,2.17
2023-04-10T12:09:13.182Z,2.55
2023-04-10T12:12:15.439Z,2.72
2023-04-10T12:15:28.419Z,2.40
2023-04-10T12:18:31.155Z,2.20
2023-04-10T12:21:36.467Z,2.97
2023-04-10T12:24:44.502Z,2.40
2023-04-10T12:27:50.680Z,2.85
2023-04-10T12:30:53.561Z,1.95
2023-04-10T12:33:58.784Z,3.00
2023-04-10T12:37:01.093Z,2.20
2023-04-10T12:40:07.458Z,1.45
2023-04-10T12:43:09.777Z,1.90
2023-04-10T12:46:31.588Z,1.67
2023-04-10T12:49:33.630Z,1.50
2023-04-10T12:52:36.679Z,1.40
2023-04-10T12:55:38.762Z,1.90
2023-04-10T12:58:42.587Z,2.30
2023-04-10T13:01:44.773Z,1.85
2023-04-10T13:04:46.972Z,1.90
2023-04-10T13:07:52.903Z,2.50
2023-04-10T13:10:55.241Z,2.13
2023-04-10T13:13:57.245Z,2.10
2023-04-10T13:16:59.270Z,1.60
2023-04-10T13:20:01.240Z,2.47
2023-04-10T13:23:04.349Z,2.13
2023-04-10T13:26:06.498Z,1.80
2023-04-10T13:29:08.658Z,2.30
2023-04-10T13:32:10.844Z,1.77
2023-04-10T13:35:13.010Z,2.53
2023-04-10T13:38:15.949Z,2.77
2023-04-10T13:41:17.962Z,1.65
2023-04-10T13:44:20.053Z,2.08
2023-04-10T13:47:22.140Z,2.45
2023-04-10T13:50:24.272Z,1.95
2023-04-10T13:53:26.210Z,2.10
2023-04-10T13:56:28.178Z,2.45
2023-04-10T13:59:30.817Z,1.98
2023-04-10T14:02:33.947Z,2.05
2023-04-10T14:05:36.450Z,1.88
2023-04-10T14:08:38.396Z,2.27
2023-04-10T14:11:40.408Z,1.70
2023-04-10T14:14:44.053Z,1.77
2023-04-10T14:17:46.120Z,1.98
2023-04-10T14:20:48.242Z,2.03
2023-04-10T14:23:50.448Z,1.90
2023-04-10T14:26:53.892Z,1.97
2023-04-10T14:29:55.871Z,2.15
2023-04-10T14:32:57.981Z,2.00
2023-04-10T14:36:00.069Z,2.45
2023-04-10T14:39:02.201Z,2.00
2023-04-10T14:42:04.177Z,1.60
2023-04-10T14:45:06.711Z,1.88
2023-04-10T14:48:09.531Z,1.80
2023-04-10T14:51:12.929Z,2.42
2023-04-10T14:54:16.980Z,2.77
2023-04-10T14:57:18.979Z,2.10
2023-04-10T15:00:21.294Z,1.83
2023-04-10T15:03:25.268Z,3.45
2023-04-10T15:06:28.203Z,4.85
2023-04-10T15:09:30.424Z,2.50
2023-04-10T15:12:32.488Z,1.53
2023-04-10T15:15:34.453Z,2.75
2023-04-10T15:18:36.397Z,1.80
2023-04-10T15:21:38.497Z,2.00
2023-04-10T15:24:49.965Z,2.60
2023-04-10T15:27:55.390Z,2.50
2023-04-10T15:30:57.936Z,2.33
2023-04-10T15:33:59.969Z,2.40
2023-04-10T15:37:01.972Z,2.35
2023-04-10T15:40:05.065Z,2.13
2023-04-10T15:43:07.250Z,2.40
2023-04-10T15:46:09.550Z,2.20
2023-04-10T15:49:11.548Z,2.30
2023-04-10T15:52:13.556Z,2.70
2023-04-10T15:55:16.309Z,3.73
2023-04-10T15:58:18.980Z,2.90
2023-04-10T16:01:20.984Z,1.90
2023-04-10T16:04:23.240Z,1.83
2023-04-10T16:07:25.348Z,2.55
2023-04-10T16:10:27.523Z,2.67
2023-04-10T16:13:29.573Z,2.23
2023-04-10T16:16:31.510Z,2.03
2023-04-10T16:19:33.525Z,1.83
2023-04-10T16:22:36.606Z,2.40
2023-04-10T16:25:38.743Z,2.20
2023-04-10T16:28:40.772Z,2.30
2023-04-10T16:31:42.872Z,2.70
2023-04-10T16:34:46.354Z,2.92
2023-04-10T16:37:48.386Z,3.13
2023-04-10T16:40:50.594Z,3.13
2023-04-10T16:43:52.751Z,2.70
2023-04-10T16:46:54.998Z,4.38
2023-04-10T16:49:57.132Z,3.78
2023-04-10T16:52:59.578Z,4.30
2023-04-10T16:56:04.433Z,4.07
2023-04-10T16:59:07.085Z,3.40
2023-04-10T17:02:09.137Z,3.15
2023-04-10T17:05:11.444Z,2.42
2023-04-10T17:08:13.474Z,2.22
2023-04-10T17:11:16.159Z,1.87
2023-04-10T17:14:18.410Z,2.30
2023-04-10T17:17:20.527Z,1.88
2023-04-10T17:20:22.635Z,1.95
2023-04-10T17:23:24.791Z,1.70
2023-04-10T17:26:26.897Z,1.83
2023-04-10T17:29:28.932Z,2.40
2023-04-10T17:32:31.296Z,2.45
2023-04-10T17:35:33.278Z,2.42
2023-04-10T17:38:37.197Z,2.03
2023-04-10T17:41:39.273Z,2.07
2023-04-10T17:44:41.461Z,2.17
2023-04-10T17:47:43.516Z,2.70
2023-04-10T17:50:45.943Z,2.40
2023-04-10T17:53:47.893Z,2.33
2023-04-10T17:56:52.488Z,1.73
2023-04-10T17:59:54.533Z,3.05
2023-04-10T18:03:00.909Z,2.47
2023-04-10T18:06:03.032Z,3.55
2023-04-10T18:09:04.978Z,3.90
2023-04-10T18:12:06.998Z,3.90
2023-04-10T18:15:09.579Z,2.38
2023-04-10T18:18:11.716Z,3.42
2023-04-10T18:21:13.897Z,3.40
2023-04-10T18:24:15.976Z,4.15
2023-04-10T18:27:17.982Z,5.67
2023-04-10T18:30:20.403Z,5.43
2023-04-10T18:33:24.257Z,5.75
2023-04-10T18:36:26.830Z,4.47
2023-04-10T18:39:29.111Z,4.15
2023-04-10T18:42:31.410Z,4.47
2023-04-10T18:45:34.938Z,4.72
2023-04-10T18:48:42.856Z,4.90
2023-04-10T18:51:44.818Z,4.53
2023-04-10T18:54:46.805Z,5.25
2023-04-10T18:57:48.820Z,6.57
2023-04-10T19:00:50.947Z,4.93
2023-04-10T19:03:55.116Z,5.60
2023-04-10T19:06:57.423Z,4.65
2023-04-10T19:09:59.638Z,3.50
2023-04-10T19:13:01.912Z,2.60
2023-04-10T19:16:04.615Z,2.90
2023-04-10T19:19:06.688Z,2.10
2023-04-10T19:22:08.819Z,2.67
2023-04-10T19:25:10.856Z,2.55
2023-04-10T19:28:12.976Z,2.57
2023-04-10T19:31:14.984Z,3.15
2023-04-10T19:34:17.640Z,3.30
2023-04-10T19:37:21.221Z,3.90
2023-04-10T19:40:23.816Z,3.72
2023-04-10T19:43:25.862Z,3.53
2023-04-10T19:46:28.124Z,3.10
2023-04-10T19:49:36.296Z,3.15
2023-04-10T19:52:38.438Z,2.72
2023-04-10T19:55:41.440Z,3.08
2023-04-10T19:58:45.512Z,3.57
2023-04-10T20:01:48.946Z,2.85
2023-04-10T20:04:51.015Z,3.90
2023-04-10T20:07:53.025Z,2.90
2023-04-10T20:10:56.661Z,4.75
2023-04-10T20:14:00.494Z,4.33
2023-04-10T20:17:02.461Z,4.38
2023-04-10T20:20:04.864Z,6.85
2023-04-10T20:23:07.228Z,5.25
2023-04-10T20:26:11.689Z,6.80
2023-04-10T20:29:13.711Z,6.47
2023-04-10T20:32:15.750Z,9.18
2023-04-10T20:35:17.793Z,6.50
2023-04-10T20:38:19.837Z,6.88
2023-04-10T20:41:21.838Z,7.13
2023-04-10T20:44:24.123Z,6.90
2023-04-10T20:47:26.206Z,7.05
2023-04-10T20:50:28.388Z,5.43
2023-04-10T20:53:30.696Z,6.13
2023-04-10T20:56:40.592Z,6.72
2023-04-10T20:59:45.545Z,6.23
2023-04-10T21:02:47.935Z,7.97
2023-04-10T21:05:51.433Z,8.18
2023-04-10T21:08:55.659Z,7.53
2023-04-10T21:11:58.197Z,7.15
2023-04-10T21:15:00.263Z,6.93
2023-04-10T21:18:02.327Z,7.38
2023-04-10T21:21:04.863Z,8.13
2023-04-10T21:24:07.024Z,9.75
2023-04-10T21:27:08.959Z,10.13
2023-04-10T21:30:11.297Z,10.00
2023-04-10T21:33:14.824Z,9.68
2023-04-10T21:36:16.840Z,10.13
2023-04-10T21:39:19.270Z,11.67
2023-04-10T21:42:21.584Z,10.07
2023-04-10T21:45:23.582Z,10.18
2023-04-10T21:48:25.613Z,10.63
2023-04-10T21:51:28.382Z,10.82
2023-04-10T21:54:30.401Z,11.00
2023-04-10T21:57:32.320Z,12.98
2023-04-10T22:00:34.520Z,10.13
2023-04-10T22:03:36.615Z,8.75
2023-04-10T22:06:38.852Z,8.40
2023-04-10T22:09:40.977Z,7.27
2023-04-10T22:12:43.194Z,10.23
2023-04-10T22:15:45.257Z,9.30
2023-04-10T22:18:48.213Z,8.65
2023-04-10T22:21:50.180Z,7.43
2023-04-10T22:24:52.168Z,5.83
2023-04-10T22:27:54.146Z,4.10
2023-04-10T22:30:56.213Z,5.38
2023-04-10T22:33:58.931Z,4.57
2023-04-10T22:37:00.996Z,5.20
2023-04-10T22:40:03.519Z,4.70
2023-04-10T22:43:05.732Z,4.00
2023-04-10T22:46:07.766Z,5.55
2023-04-10T22:49:10.447Z,4.72
2023-04-10T22:52:13.306Z,3.50
2023-04-10T22:55:15.548Z,4.03
2023-04-10T22:58:17.530Z,3.58
2023-04-10T23:01:19.885Z,3.95
2023-04-10T23:04:21.973Z,4.10
2023-04-10T23:07:25.763Z,3.63
2023-04-10T23:10:28.032Z,4.32
2023-04-10T23:13:30.300Z,4.20
2023-04-10T23:16:32.496Z,3.17
2023-04-10T23:19:34.580Z,4.50
2023-04-10T23:22:36.520Z,3.30
2023-04-10T23:25:38.679Z,3.95
2023-04-10T23:28:40.932Z,3.33
2023-04-10T23:31:43.171Z,3.45
2023-04-10T23:34:45.390Z,3.88
2023-04-10T23:37:47.369Z,3.50
2023-04-10T23:40:49.583Z,3.10
2023-04-10T23:43:51.717Z,2.90
2023-04-10T23:46:53.744Z,2.53
2023-04-10T23:49:55.772Z,3.27
2023-04-10T23:52:59.356Z,2.83
2023-04-10T23:56:01.677Z,3.33
2023-04-10T23:59:03.748Z,3.20
